Time;durP1;ratioP1;P1;durP2;ratioP2;P2;SDS_P1;SDS_P2;PMS_P1;PMS_P2;Temp;Humidity;BMP_temperature;BMP_pressure;BME280_temperature;BME280_humidity;BME280_pressure;Samples;Min_cycle;Max_cycle;Signal;HPM_P1;HPM_P2
2021/01/14 07:58:22;;;;;;;;;1.00;1.00;;;;;;;;1521851;28;88157;-87
2021/01/14 07:59:09;;;;;;;;;0.00;0.00;;;;;;;;1529272;28;89746;-84
2021/01/14 07:59:56;;;;;;;;;1.00;1.00;;;;;;;;1523375;28;90018;-85
2021/01/14 08:00:41;;;;;;;;;0.80;0.80;;;;;;;;1523317;28;88871;-84
2021/01/14 08:01:27;;;;;;;;;1.00;1.00;;;;;;;;1523260;28;87557;-84
2021/01/14 08:02:24;;;;;;;;;0.00;0.00;;;;;;;;1523618;28;88779;-84
2021/01/14 08:03:14;;;;;;;;;0.25;0.25;;;;;;;;1517523;28;89041;-84
2021/01/14 08:03:59;;;;;;;;;0.50;0.50;;;;;;;;1521353;28;90114;-84
2021/01/14 08:04:48;;;;;;;;;0.67;0.67;;;;;;;;1523320;28;87376;-84
2021/01/14 08:05:37;;;;;;;;;2.00;1.00;;;;;;;;1520195;28;89953;-85
2021/01/14 08:06:26;;;;;;;;;0.00;0.00;;;;;;;;1517100;28;89231;-84
2021/01/14 08:07:21;;;;;;;;;0.50;0.50;;;;;;;;1524010;28;88472;-84
2021/01/14 08:08:39;;;;;;;;;1.00;1.00;;;;;;;;1526654;28;90584;-84
2021/01/14 08:09:24;;;;;;;;;1.00;1.00;;;;;;;;1505544;28;89996;-85
2021/01/14 08:10:15;;;;;;;;;1.75;1.75;;;;;;;;1510938;28;88626;-85
2021/01/14 08:11:09;;;;;;;;;1.00;1.00;;;;;;;;1502562;29;90524;-84
2021/01/14 08:11:55;;;;;;;;;1.00;1.00;;;;;;;;1502847;29;88337;-83
2021/01/14 08:12:44;;;;;;;;;1.25;1.25;;;;;;;;1505712;28;89949;-84
2021/01/14 08:13:30;;;;;;;;;1.00;1.00;;;;;;;;1505253;29;89433;-86
2021/01/14 08:14:18;;;;;;;;;0.00;0.00;;;;;;;;1507667;28;90382;-85
2021/01/14 08:15:03;;;;;;;;;1.00;1.00;;;;;;;;1513152;28;90104;-85
2021/01/14 08:15:49;;;;;;;;;1.00;1.00;;;;;;;;1514633;28;90500;-87
2021/01/14 08:16:35;;;;;;;;;1.00;1.00;;;;;;;;1511094;28;89546;-85
2021/01/14 08:17:24;;;;;;;;;0.75;0.75;;;;;;;;1513159;28;88896;-85
2021/01/14 08:18:10;;;;;;;;;0.50;0.50;;;;;;;;1511129;28;88948;-86
2021/01/14 08:19:17;;;;;;;;;0.50;0.50;;;;;;;;1511323;28;90240;-86
2021/01/14 08:20:02;;;;;;;;;0.75;0.00;;;;;;;;1515988;28;89634;-85
2021/01/14 08:21:07;;;;;;;;;1.00;1.00;;;;;;;;1517179;28;89213;-85
2021/01/14 08:21:58;;;;;;;;;1.00;1.00;;;;;;;;1512523;28;90680;-85
2021/01/14 08:22:44;;;;;;;;;0.60;0.60;;;;;;;;1510539;28;90712;-86
2021/01/14 08:23:30;;;;;;;;;1.40;1.40;;;;;;;;1516189;28;88772;-87
2021/01/14 08:24:34;;;;;;;;;0.50;0.50;;;;;;;;1511526;28;89544;-86
2021/01/14 08:25:19;;;;;;;;;0.00;0.00;;;;;;;;1511695;28;89952;-87
2021/01/14 08:26:11;;;;;;;;;0.25;0.25;;;;;;;;1515660;28;90207;-85
2021/01/14 08:26:59;;;;;;;;;1.00;1.00;;;;;;;;1510911;28;90476;-86
2021/01/14 08:27:45;;;;;;;;;0.60;0.60;;;;;;;;1505159;29;89174;-86
2021/01/14 08:28:33;;;;;;;;;2.00;2.00;;;;;;;;1507805;28;89004;-85
2021/01/14 08:29:27;;;;;;;;;1.00;1.00;;;;;;;;1505514;29;89658;-85
2021/01/14 08:30:13;;;;;;;;;0.00;0.00;;;;;;;;1505512;29;90263;-86
2021/01/14 08:30:59;;;;;;;;;0.75;0.75;;;;;;;;1511104;28;89200;-87
2021/01/14 08:31:44;;;;;;;;;1.25;1.25;;;;;;;;1512972;28;88015;-86
2021/01/14 08:32:35;;;;;;;;;0.00;0.00;;;;;;;;1511230;28;87238;-86
2021/01/14 08:33:24;;;;;;;;;0.20;0.20;;;;;;;;1508878;28;86999;-87
2021/01/14 08:34:09;;;;;;;;;0.00;0.00;;;;;;;;1502908;29;87225;-86
2021/01/14 08:34:55;;;;;;;;;1.00;1.00;;;;;;;;1507893;28;87022;-86
2021/01/14 08:35:41;;;;;;;;;0.00;0.00;;;;;;;;1511235;28;87597;-86
2021/01/14 08:36:29;;;;;;;;;0.00;0.00;;;;;;;;1509196;28;86945;-86
2021/01/14 08:37:26;;;;;;;;;0.00;0.00;;;;;;;;1503489;28;87146;-86
2021/01/14 08:38:13;;;;;;;;;0.00;0.00;;;;;;;;1508527;28;87064;-85
2021/01/14 08:38:59;;;;;;;;;0.00;0.00;;;;;;;;1509325;28;87053;-85
2021/01/14 08:39:44;;;;;;;;;0.00;0.00;;;;;;;;1509350;28;88068;-84
2021/01/14 08:40:31;;;;;;;;;0.00;0.00;;;;;;;;1507873;28;86839;-85
2021/01/14 08:41:26;;;;;;;;;0.00;0.00;;;;;;;;1507908;28;86915;-86
2021/01/14 08:42:11;;;;;;;;;1.00;1.00;;;;;;;;1504870;29;87124;-85
2021/01/14 08:43:00;;;;;;;;;0.33;0.33;;;;;;;;1505160;29;87160;-85
2021/01/14 08:43:45;;;;;;;;;0.00;0.00;;;;;;;;1507958;28;87131;-85
2021/01/14 08:44:31;;;;;;;;;0.00;0.00;;;;;;;;1513286;28;87261;-85
2021/01/14 08:45:20;;;;;;;;;1.00;1.00;;;;;;;;1515530;28;86542;-85
2021/01/14 08:46:05;;;;;;;;;0.00;0.00;;;;;;;;1517455;28;87040;-85
2021/01/14 08:46:51;;;;;;;;;1.00;1.00;;;;;;;;1523311;28;87074;-84
2021/01/14 08:47:52;;;;;;;;;0.20;0.20;;;;;;;;1523080;28;88105;-86
2021/01/14 08:48:37;;;;;;;;;0.00;0.00;;;;;;;;1527606;28;87040;-85
2021/01/14 08:49:22;;;;;;;;;0.50;0.50;;;;;;;;1529820;28;87024;-86
2021/01/14 08:50:08;;;;;;;;;1.00;1.00;;;;;;;;1527427;28;87695;-87
2021/01/14 08:50:53;;;;;;;;;0.75;0.75;;;;;;;;1523038;28;87047;-86
2021/01/14 08:51:39;;;;;;;;;2.75;2.75;;;;;;;;1516603;28;87185;-86
2021/01/14 08:52:25;;;;;;;;;1.80;1.80;;;;;;;;1518344;28;87052;-86
2021/01/14 08:53:11;;;;;;;;;1.00;1.00;;;;;;;;1518800;28;86278;-86
2021/01/14 08:54:03;;;;;;;;;1.00;1.00;;;;;;;;1528130;28;86939;-86
2021/01/14 08:54:49;;;;;;;;;1.00;1.00;;;;;;;;1529004;28;89886;-87
2021/01/14 08:55:35;;;;;;;;;1.00;1.00;;;;;;;;1529204;28;89557;-88
2021/01/14 08:56:20;;;;;;;;;0.00;0.00;;;;;;;;1522600;28;90907;-88
2021/01/14 08:57:05;;;;;;;;;0.00;0.00;;;;;;;;1523626;28;89723;-87
2021/01/14 08:57:52;;;;;;;;;0.00;0.00;;;;;;;;1524867;28;90286;-89
2021/01/14 08:58:38;;;;;;;;;0.50;0.50;;;;;;;;1523767;28;89270;-88
2021/01/14 08:59:24;;;;;;;;;0.00;0.00;;;;;;;;1520986;28;90334;-88
2021/01/14 09:00:10;;;;;;;;;0.33;0.33;;;;;;;;1519824;28;89713;-88
2021/01/14 09:01:01;;;;;;;;;0.25;0.25;;;;;;;;1519230;28;90224;-87
2021/01/14 09:01:46;;;;;;;;;0.33;0.33;;;;;;;;1526109;28;89542;-88
2021/01/14 09:02:31;;;;;;;;;0.00;0.00;;;;;;;;1525719;28;90159;-90
2021/01/14 09:03:18;;;;;;;;;0.67;0.67;;;;;;;;1520491;28;90348;-85
2021/01/14 09:04:05;;;;;;;;;0.50;0.50;;;;;;;;1519647;28;87692;-88
2021/01/14 09:04:59;;;;;;;;;0.00;0.00;;;;;;;;1527216;28;87892;-88
2021/01/14 09:05:45;;;;;;;;;0.00;0.00;;;;;;;;1526550;28;90104;-85
2021/01/14 09:06:33;;;;;;;;;0.00;0.00;;;;;;;;1523299;28;90052;-89
2021/01/14 09:07:19;;;;;;;;;0.00;0.00;;;;;;;;1522666;28;88953;-88
2021/01/14 09:08:04;;;;;;;;;0.00;0.00;;;;;;;;1523508;28;89874;-87
2021/01/14 09:08:53;;;;;;;;;0.67;0.67;;;;;;;;1525551;28;89221;-85
2021/01/14 09:09:39;;;;;;;;;0.00;0.00;;;;;;;;1523525;28;89555;-88
2021/01/14 09:10:24;;;;;;;;;0.00;0.00;;;;;;;;1523387;28;89096;-86
2021/01/14 09:11:11;;;;;;;;;0.00;0.00;;;;;;;;1525209;28;87909;-90
2021/01/14 09:11:57;;;;;;;;;0.00;0.00;;;;;;;;1526059;28;90202;-89
2021/01/14 09:12:42;;;;;;;;;0.00;0.00;;;;;;;;1530177;28;89044;-90
2021/01/14 09:13:28;;;;;;;;;0.00;0.00;;;;;;;;1529641;28;90491;-89
2021/01/14 09:14:18;;;;;;;;;0.00;0.00;;;;;;;;1529444;28;88882;-90
2021/01/14 09:15:04;;;;;;;;;0.00;0.00;;;;;;;;1529286;28;90072;-88
2021/01/14 09:15:53;;;;;;;;;1.00;1.00;;;;;;;;1526311;28;89752;-89
2021/01/14 09:16:39;;;;;;;;;0.00;0.00;;;;;;;;1526166;28;88099;-89
2021/01/14 09:17:25;;;;;;;;;0.00;0.00;;;;;;;;1525981;28;89130;-89
2021/01/14 09:18:10;;;;;;;;;1.00;1.00;;;;;;;;1529410;28;89352;-87
2021/01/14 09:18:56;;;;;;;;;0.00;0.00;;;;;;;;1522910;28;91120;-89
2021/01/14 09:19:53;;;;;;;;;0.00;0.00;;;;;;;;1519863;28;90152;-90
2021/01/14 09:20:39;;;;;;;;;1.00;1.00;;;;;;;;1526753;28;87957;-89
2021/01/14 09:21:24;;;;;;;;;0.00;0.00;;;;;;;;1526955;28;90283;-86
2021/01/14 09:22:10;;;;;;;;;0.00;0.00;;;;;;;;1523571;28;90109;-86
2021/01/14 09:22:58;;;;;;;;;0.67;0.67;;;;;;;;1522901;28;89102;-87
2021/01/14 09:23:43;;;;;;;;;3.00;3.00;;;;;;;;1523036;28;88286;-87
2021/01/14 09:24:29;;;;;;;;;1.00;1.00;;;;;;;;1525333;28;88205;-86
2021/01/14 09:25:14;;;;;;;;;1.00;1.00;;;;;;;;1521148;28;89869;-86
2021/01/14 09:26:00;;;;;;;;;2.00;2.00;;;;;;;;1519281;28;87791;-87
2021/01/14 09:26:49;;;;;;;;;3.00;3.00;;;;;;;;1524101;28;90985;-86
2021/01/14 09:27:35;;;;;;;;;0.00;0.00;;;;;;;;1523066;28;88020;-86
2021/01/14 09:28:21;;;;;;;;;0.00;0.00;;;;;;;;1523230;28;87861;-87
2021/01/14 09:29:07;;;;;;;;;0.25;0.25;;;;;;;;1523000;28;89262;-87
2021/01/14 09:29:52;;;;;;;;;0.00;0.00;;;;;;;;1523128;28;89356;-87
2021/01/14 09:30:38;;;;;;;;;0.00;0.00;;;;;;;;1523112;28;87074;-87
2021/01/14 09:31:23;;;;;;;;;0.00;0.00;;;;;;;;1523130;28;89775;-87
2021/01/14 09:32:14;;;;;;;;;0.00;0.00;;;;;;;;1523286;28;89179;-87
2021/01/14 09:32:59;;;;;;;;;1.50;1.50;;;;;;;;1522940;28;90697;-86
2021/01/14 09:33:46;;;;;;;;;1.67;1.67;;;;;;;;1523263;28;89293;-88
2021/01/14 09:34:31;;;;;;;;;1.00;1.00;;;;;;;;1523267;28;90363;-86
2021/01/14 09:35:16;;;;;;;;;0.00;0.00;;;;;;;;1518917;28;89498;-87
2021/01/14 09:36:07;;;;;;;;;0.00;0.00;;;;;;;;1517036;28;90931;-87
2021/01/14 09:36:52;;;;;;;;;0.50;0.50;;;;;;;;1515172;28;89775;-85
2021/01/14 09:37:37;;;;;;;;;1.00;1.00;;;;;;;;1524446;28;87777;-85
2021/01/14 09:38:23;;;;;;;;;0.00;0.00;;;;;;;;1535987;28;88030;-86
2021/01/14 09:39:13;;;;;;;;;0.50;0.50;;;;;;;;1534647;28;87033;-86
2021/01/14 09:40:07;;;;;;;;;0.75;0.75;;;;;;;;1535061;28;87685;-86
2021/01/14 09:40:53;;;;;;;;;0.00;0.00;;;;;;;;1522982;28;87002;-87
2021/01/14 09:41:40;;;;;;;;;1.00;1.00;;;;;;;;1525765;28;87583;-86
2021/01/14 09:42:26;;;;;;;;;0.00;0.00;;;;;;;;1528889;28;88060;-87
2021/01/14 09:43:11;;;;;;;;;0.00;0.00;;;;;;;;1522993;28;87022;-88
2021/01/14 09:43:57;;;;;;;;;0.33;0.33;;;;;;;;1519087;28;87061;-87
2021/01/14 09:44:43;;;;;;;;;0.00;0.00;;;;;;;;1519055;28;87127;-85
2021/01/14 09:45:29;;;;;;;;;0.00;0.00;;;;;;;;1525254;28;86928;-87
2021/01/14 09:46:14;;;;;;;;;0.00;0.00;;;;;;;;1528927;28;87381;-87
2021/01/14 09:46:59;;;;;;;;;0.00;0.00;;;;;;;;1523088;28;86988;-86
2021/01/14 09:47:46;;;;;;;;;0.67;0.67;;;;;;;;1525275;28;86232;-86
2021/01/14 09:48:32;;;;;;;;;0.75;0.75;;;;;;;;1525154;28;86879;-86
2021/01/14 09:49:21;;;;;;;;;0.00;0.00;;;;;;;;1523268;28;87117;-86
2021/01/14 09:50:06;;;;;;;;;0.00;0.00;;;;;;;;1519432;28;88110;-86
2021/01/14 09:50:51;;;;;;;;;0.00;0.00;;;;;;;;1516874;28;87044;-86
2021/01/14 09:51:37;;;;;;;;;0.00;0.00;;;;;;;;1524276;28;87134;-86
2021/01/14 09:52:26;;;;;;;;;2.00;2.00;;;;;;;;1524791;28;87145;-86
2021/01/14 09:53:12;;;;;;;;;0.00;0.00;;;;;;;;1522925;28;87219;-86
2021/01/14 09:53:57;;;;;;;;;0.00;0.00;;;;;;;;1525039;28;87158;-86
2021/01/14 09:54:43;;;;;;;;;0.00;0.00;;;;;;;;1522949;28;86973;-86
2021/01/14 09:55:29;;;;;;;;;0.00;0.00;;;;;;;;1525286;28;86064;-87
2021/01/14 09:56:17;;;;;;;;;0.33;0.33;;;;;;;;1522609;28;87109;-87
2021/01/14 09:57:03;;;;;;;;;0.75;0.75;;;;;;;;1519500;28;87100;-87
2021/01/14 09:57:53;;;;;;;;;0.00;0.00;;;;;;;;1516493;28;88102;-85
2021/01/14 09:58:41;;;;;;;;;1.00;1.00;;;;;;;;1519691;28;87042;-86
2021/01/14 09:59:38;;;;;;;;;0.00;0.00;;;;;;;;1519743;28;87034;-85
2021/01/14 10:00:26;;;;;;;;;0.50;0.50;;;;;;;;1525764;28;87284;-86
2021/01/14 10:01:13;;;;;;;;;0.00;0.00;;;;;;;;1517051;28;89528;-86
2021/01/14 10:02:00;;;;;;;;;0.00;0.00;;;;;;;;1513575;28;89996;-86
2021/01/14 10:02:48;;;;;;;;;0.00;0.00;;;;;;;;1513543;28;90167;-86
2021/01/14 10:03:35;;;;;;;;;0.00;0.00;;;;;;;;1513016;28;90384;-86
2021/01/14 10:04:33;;;;;;;;;1.00;1.00;;;;;;;;1519115;28;87096;-86
2021/01/14 10:05:20;;;;;;;;;0.00;0.00;;;;;;;;1521029;28;86923;-86
2021/01/14 10:06:05;;;;;;;;;0.00;0.00;;;;;;;;1530499;28;89985;-86
2021/01/14 10:07:01;;;;;;;;;0.33;0.33;;;;;;;;1528281;28;91441;-86
2021/01/14 10:07:48;;;;;;;;;1.00;1.00;;;;;;;;1522919;28;89144;-86
2021/01/14 10:08:35;;;;;;;;;0.00;0.00;;;;;;;;1520210;28;90206;-87
2021/01/14 10:09:21;;;;;;;;;0.75;0.75;;;;;;;;1520684;28;90677;-86
2021/01/14 10:10:07;;;;;;;;;1.00;1.00;;;;;;;;1518344;28;90749;-86
2021/01/14 10:10:52;;;;;;;;;0.00;0.00;;;;;;;;1521843;28;90176;-86
2021/01/14 10:11:38;;;;;;;;;0.00;0.00;;;;;;;;1524881;28;89811;-85
2021/01/14 10:12:23;;;;;;;;;0.00;0.00;;;;;;;;1522836;28;88995;-85
2021/01/14 10:13:14;;;;;;;;;0.00;0.00;;;;;;;;1524608;28;89339;-84
2021/01/14 10:13:59;;;;;;;;;0.00;0.00;;;;;;;;1525339;28;90326;-84
2021/01/14 10:14:45;;;;;;;;;0.00;0.00;;;;;;;;1528691;28;89708;-85
2021/01/14 10:15:30;;;;;;;;;0.00;0.00;;;;;;;;1522884;28;89950;-85
2021/01/14 10:16:18;;;;;;;;;0.00;0.00;;;;;;;;1521302;28;89332;-86
2021/01/14 10:17:09;;;;;;;;;0.00;0.00;;;;;;;;1525079;28;90340;-84
2021/01/14 10:17:55;;;;;;;;;2.00;0.00;;;;;;;;1528514;28;90594;-84
2021/01/14 10:18:40;;;;;;;;;0.00;0.00;;;;;;;;1528804;28;89290;-84
2021/01/14 10:19:25;;;;;;;;;0.00;0.00;;;;;;;;1522846;28;90154;-86
2021/01/14 10:20:14;;;;;;;;;0.00;0.00;;;;;;;;1518679;28;89477;-85
2021/01/14 10:21:01;;;;;;;;;0.50;0.50;;;;;;;;1524932;28;90413;-85
2021/01/14 10:21:47;;;;;;;;;0.00;0.00;;;;;;;;1528486;28;88046;-85
2021/01/14 10:22:34;;;;;;;;;0.00;0.00;;;;;;;;1528679;28;90807;-85
2021/01/14 10:23:23;;;;;;;;;0.50;0.50;;;;;;;;1525464;28;90333;-84
2021/01/14 10:24:31;;;;;;;;;0.00;0.00;;;;;;;;1525248;28;90473;-85
2021/01/14 10:25:17;;;;;;;;;0.25;0.25;;;;;;;;1517192;28;90619;-86
2021/01/14 10:26:02;;;;;;;;;0.00;0.00;;;;;;;;1518487;28;90424;-85
2021/01/14 10:26:47;;;;;;;;;0.00;0.00;;;;;;;;1524764;28;90290;-85
2021/01/14 10:27:33;;;;;;;;;0.00;0.00;;;;;;;;1522907;28;90044;-86
2021/01/14 10:28:18;;;;;;;;;1.00;1.00;;;;;;;;1524527;28;90648;-85
2021/01/14 10:29:05;;;;;;;;;0.00;0.00;;;;;;;;1528557;28;90692;-85
2021/01/14 10:29:55;;;;;;;;;0.00;0.00;;;;;;;;1528392;28;88901;-84
2021/01/14 10:30:41;;;;;;;;;0.00;0.00;;;;;;;;1525473;28;89979;-85
2021/01/14 10:31:32;;;;;;;;;1.00;1.00;;;;;;;;1522660;28;90527;-84
2021/01/14 10:32:22;;;;;;;;;0.00;0.00;;;;;;;;1525173;28;90432;-84
2021/01/14 10:33:07;;;;;;;;;0.50;0.50;;;;;;;;1522474;28;90717;-85
2021/01/14 10:33:56;;;;;;;;;1.00;1.00;;;;;;;;1522620;28;89406;-85
2021/01/14 10:34:48;;;;;;;;;0.00;0.00;;;;;;;;1518945;28;90579;-84
2021/01/14 10:35:34;;;;;;;;;0.00;0.00;;;;;;;;1520034;28;89940;-86
2021/01/14 10:36:20;;;;;;;;;1.00;1.00;;;;;;;;1522574;28;90339;-86
2021/01/14 10:37:05;;;;;;;;;0.00;0.00;;;;;;;;1521336;28;90416;-85
2021/01/14 10:38:06;;;;;;;;;1.00;1.00;;;;;;;;1522224;28;91380;-84
2021/01/14 10:38:52;;;;;;;;;1.00;1.00;;;;;;;;1526666;28;87832;-85
2021/01/14 10:39:38;;;;;;;;;1.00;1.00;;;;;;;;1529114;28;87828;-85
2021/01/14 10:40:26;;;;;;;;;1.00;1.00;;;;;;;;1525095;28;87805;-86
2021/01/14 10:41:19;;;;;;;;;0.00;0.00;;;;;;;;1533555;28;90854;-84
2021/01/14 10:42:23;;;;;;;;;2.75;1.00;;;;;;;;1535477;28;90683;-87
2021/01/14 10:43:09;;;;;;;;;1.00;1.00;;;;;;;;1533609;28;88136;-87
2021/01/14 10:44:03;;;;;;;;;1.00;1.00;;;;;;;;1529035;28;88011;-87
2021/01/14 10:44:52;;;;;;;;;0.00;0.00;;;;;;;;1522638;28;90245;-88
2021/01/14 10:45:38;;;;;;;;;1.00;1.00;;;;;;;;1522772;28;91175;-87
2021/01/14 10:46:23;;;;;;;;;0.00;0.00;;;;;;;;1527733;28;91082;-87
2021/01/14 10:47:14;;;;;;;;;0.67;0.67;;;;;;;;1521468;28;87254;-87
2021/01/14 10:48:06;;;;;;;;;0.25;0.25;;;;;;;;1521932;28;87655;-88
2021/01/14 10:48:52;;;;;;;;;0.75;0.75;;;;;;;;1519547;28;86962;-87
2021/01/14 10:49:37;;;;;;;;;1.00;1.00;;;;;;;;1519586;28;87036;-87
2021/01/14 10:50:23;;;;;;;;;1.00;1.00;;;;;;;;1530440;28;87045;-88
2021/01/14 10:51:09;;;;;;;;;1.00;1.00;;;;;;;;1532236;28;87117;-88
2021/01/14 10:52:03;;;;;;;;;0.00;0.00;;;;;;;;1520255;28;87186;-88
2021/01/14 10:52:54;;;;;;;;;1.50;1.50;;;;;;;;1514467;28;86982;-89
2021/01/14 10:53:41;;;;;;;;;1.00;1.00;;;;;;;;1520903;28;86986;-88
2021/01/14 10:54:26;;;;;;;;;1.00;1.00;;;;;;;;1525539;28;87952;-88
2021/01/14 10:55:15;;;;;;;;;1.00;1.00;;;;;;;;1525346;28;87112;-88
2021/01/14 10:56:03;;;;;;;;;1.00;1.00;;;;;;;;1526978;28;87096;-88
2021/01/14 10:56:51;;;;;;;;;0.00;0.00;;;;;;;;1522688;28;87240;-87
2021/01/14 10:57:53;;;;;;;;;1.25;1.25;;;;;;;;1525312;28;87020;-88
2021/01/14 10:58:40;;;;;;;;;1.00;1.00;;;;;;;;1535472;28;86864;-89
2021/01/14 10:59:25;;;;;;;;;1.00;1.00;;;;;;;;1528841;28;86915;-88
2021/01/14 11:00:14;;;;;;;;;0.00;0.00;;;;;;;;1529949;28;86537;-89
2021/01/14 11:01:00;;;;;;;;;1.00;1.00;;;;;;;;1527524;28;87249;-88
2021/01/14 11:01:45;;;;;;;;;1.00;1.00;;;;;;;;1516902;28;87029;-86
2021/01/14 11:02:30;;;;;;;;;0.00;0.00;;;;;;;;1512534;28;88116;-88
2021/01/14 11:03:20;;;;;;;;;1.00;1.00;;;;;;;;1516547;28;87198;-89
2021/01/14 11:04:06;;;;;;;;;1.00;1.00;;;;;;;;1523086;28;86776;-89
2021/01/14 11:04:54;;;;;;;;;0.00;0.00;;;;;;;;1519170;28;87096;-89
2021/01/14 11:05:53;;;;;;;;;0.00;0.00;;;;;;;;1518403;28;86980;-89
2021/01/14 11:06:39;;;;;;;;;0.00;0.00;;;;;;;;1526175;28;86849;-87
2021/01/14 11:07:24;;;;;;;;;0.33;0.33;;;;;;;;1527685;28;87054;-87
2021/01/14 11:08:10;;;;;;;;;0.33;0.33;;;;;;;;1528900;28;87135;-90
2021/01/14 11:09:06;;;;;;;;;0.00;0.00;;;;;;;;1529850;28;87111;-89
2021/01/14 11:09:52;;;;;;;;;0.00;0.00;;;;;;;;1526458;28;87013;-89
2021/01/14 11:10:37;;;;;;;;;0.67;0.67;;;;;;;;1526003;28;89037;-89
2021/01/14 11:11:23;;;;;;;;;0.00;0.00;;;;;;;;1524675;28;90082;-89
2021/01/14 11:12:09;;;;;;;;;0.00;0.00;;;;;;;;1528739;28;89858;-89
2021/01/14 11:13:00;;;;;;;;;0.00;0.00;;;;;;;;1522624;28;89904;-89
2021/01/14 11:13:49;;;;;;;;;0.00;0.00;;;;;;;;1520408;28;91047;-89
2021/01/14 11:14:45;;;;;;;;;0.00;0.00;;;;;;;;1521986;28;87723;-90
2021/01/14 11:15:30;;;;;;;;;0.00;0.00;;;;;;;;1524494;28;88801;-90
2021/01/14 11:16:17;;;;;;;;;0.00;0.00;;;;;;;;1521932;28;88918;-88
2021/01/14 11:17:02;;;;;;;;;0.00;0.00;;;;;;;;1517889;28;88738;-88
2021/01/14 11:17:47;;;;;;;;;0.00;0.00;;;;;;;;1517146;28;91036;-87
2021/01/14 11:18:40;;;;;;;;;0.00;0.00;;;;;;;;1518170;28;90238;-88
2021/01/14 11:19:25;;;;;;;;;1.00;1.00;;;;;;;;1520609;28;90265;-88
2021/01/14 11:20:11;;;;;;;;;0.00;0.00;;;;;;;;1518272;28;91053;-88
2021/01/14 11:20:56;;;;;;;;;0.00;0.00;;;;;;;;1521137;28;90358;-88
2021/01/14 11:21:42;;;;;;;;;0.00;0.00;;;;;;;;1518513;28;89253;-89
2021/01/14 11:22:27;;;;;;;;;1.00;1.00;;;;;;;;1518549;28;89370;-89
2021/01/14 11:23:12;;;;;;;;;0.67;0.67;;;;;;;;1522238;28;88751;-89
2021/01/14 11:23:59;;;;;;;;;1.00;1.00;;;;;;;;1514022;28;86302;-88
2021/01/14 11:24:44;;;;;;;;;0.50;0.50;;;;;;;;1517009;28;88054;-90
2021/01/14 11:25:30;;;;;;;;;1.00;1.00;;;;;;;;1518426;28;89891;-89
2021/01/14 11:26:19;;;;;;;;;0.67;0.67;;;;;;;;1523511;28;88539;-90
2021/01/14 11:27:04;;;;;;;;;1.00;1.00;;;;;;;;1519045;28;90820;-89
2021/01/14 11:27:49;;;;;;;;;2.00;2.00;;;;;;;;1522768;28;89272;-90
2021/01/14 11:28:41;;;;;;;;;0.33;0.33;;;;;;;;1522606;28;90140;-90
2021/01/14 11:29:26;;;;;;;;;0.25;0.25;;;;;;;;1522688;28;90322;-89
2021/01/14 11:30:12;;;;;;;;;0.00;0.00;;;;;;;;1516767;28;89941;-90
2021/01/14 11:30:57;;;;;;;;;1.00;1.00;;;;;;;;1518248;28;90046;-90
2021/01/14 11:31:43;;;;;;;;;1.00;1.00;;;;;;;;1522363;28;90461;-90
2021/01/14 11:32:28;;;;;;;;;0.00;0.00;;;;;;;;1522320;28;91122;-89
2021/01/14 11:33:14;;;;;;;;;0.67;0.67;;;;;;;;1516584;28;90295;-89
2021/01/14 11:33:59;;;;;;;;;0.00;0.00;;;;;;;;1512450;28;91698;-89
2021/01/14 11:34:44;;;;;;;;;0.00;0.00;;;;;;;;1512637;28;90376;-87
2021/01/14 11:35:30;;;;;;;;;0.00;0.00;;;;;;;;1518473;28;90325;-89
2021/01/14 11:36:16;;;;;;;;;0.33;0.00;;;;;;;;1527071;28;88973;-89
2021/01/14 11:37:01;;;;;;;;;0.00;0.00;;;;;;;;1522621;28;90547;-89
2021/01/14 11:37:46;;;;;;;;;0.00;0.00;;;;;;;;1518834;28;90204;-89
2021/01/14 11:38:31;;;;;;;;;0.00;0.00;;;;;;;;1518528;28;91345;-89
2021/01/14 11:39:17;;;;;;;;;0.00;0.00;;;;;;;;1524745;28;89340;-89
2021/01/14 11:40:02;;;;;;;;;0.33;0.33;;;;;;;;1528393;28;88744;-89
2021/01/14 11:40:48;;;;;;;;;0.33;0.33;;;;;;;;1523069;28;89328;-88
2021/01/14 11:41:33;;;;;;;;;0.00;0.00;;;;;;;;1518311;28;91371;-89
2021/01/14 11:42:18;;;;;;;;;0.00;0.00;;;;;;;;1518649;28;90455;-89
2021/01/14 11:43:04;;;;;;;;;1.00;1.00;;;;;;;;1524525;28;89264;-89
2021/01/14 11:43:49;;;;;;;;;0.00;0.00;;;;;;;;1525226;28;90232;-89
2021/01/14 11:44:34;;;;;;;;;0.00;0.00;;;;;;;;1522646;28;90076;-88
2021/01/14 11:45:20;;;;;;;;;0.00;0.00;;;;;;;;1521415;28;90272;-88
2021/01/14 11:46:13;;;;;;;;;0.67;0.67;;;;;;;;1516637;28;90497;-90
2021/01/14 11:46:58;;;;;;;;;0.00;0.00;;;;;;;;1514200;28;88359;-90
2021/01/14 11:47:43;;;;;;;;;0.00;0.00;;;;;;;;1513889;28;89566;-90
2021/01/14 11:48:29;;;;;;;;;0.00;0.00;;;;;;;;1512659;28;89761;-90
2021/01/14 11:49:14;;;;;;;;;0.00;0.00;;;;;;;;1516486;28;90979;-89
2021/01/14 11:49:59;;;;;;;;;0.00;0.00;;;;;;;;1515575;28;90278;-90
2021/01/14 11:50:45;;;;;;;;;0.00;0.00;;;;;;;;1522354;28;89385;-90
2021/01/14 11:51:30;;;;;;;;;0.00;0.00;;;;;;;;1522702;28;88113;-90
2021/01/14 11:52:15;;;;;;;;;0.00;0.00;;;;;;;;1518535;28;89893;-90
2021/01/14 11:53:01;;;;;;;;;0.00;0.00;;;;;;;;1525256;28;89952;-89
2021/01/14 11:53:46;;;;;;;;;0.00;0.00;;;;;;;;1522726;28;86623;-88
2021/01/14 11:54:31;;;;;;;;;0.00;0.00;;;;;;;;1518631;28;86359;-89
2021/01/14 11:55:21;;;;;;;;;1.00;1.00;;;;;;;;1520844;28;86972;-90
2021/01/14 11:56:06;;;;;;;;;1.00;1.00;;;;;;;;1525013;28;86764;-89
2021/01/14 11:56:51;;;;;;;;;0.00;0.00;;;;;;;;1528524;28;87875;-90
2021/01/14 11:57:37;;;;;;;;;0.00;0.00;;;;;;;;1522450;28;87064;-90
2021/01/14 11:58:22;;;;;;;;;1.00;1.00;;;;;;;;1518885;28;87068;-90
2021/01/14 11:59:07;;;;;;;;;1.00;1.00;;;;;;;;1524691;28;87049;-90
2021/01/14 11:59:52;;;;;;;;;0.67;0.67;;;;;;;;1522873;28;87169;-91
2021/01/14 12:00:38;;;;;;;;;0.00;0.00;;;;;;;;1522661;28;87546;-91
2021/01/14 12:01:23;;;;;;;;;1.00;1.00;;;;;;;;1518488;28;87762;-90
2021/01/14 12:02:08;;;;;;;;;0.00;0.00;;;;;;;;1518874;28;86445;-90
2021/01/14 12:02:54;;;;;;;;;0.00;0.00;;;;;;;;1522736;28;87013;-90
2021/01/14 12:03:39;;;;;;;;;0.67;0.67;;;;;;;;1524384;28;86777;-90
2021/01/14 12:04:24;;;;;;;;;0.00;0.00;;;;;;;;1521911;28;87995;-90
2021/01/14 12:05:10;;;;;;;;;0.00;0.00;;;;;;;;1522536;28;87059;-90
2021/01/14 12:05:55;;;;;;;;;0.33;0.33;;;;;;;;1518709;28;86892;-91
2021/01/14 12:06:41;;;;;;;;;0.00;0.00;;;;;;;;1519840;28;86818;-92
2021/01/14 12:07:26;;;;;;;;;0.00;0.00;;;;;;;;1526299;28;87048;-90
2021/01/14 12:08:11;;;;;;;;;0.00;0.00;;;;;;;;1522445;28;87093;-90
2021/01/14 12:08:57;;;;;;;;;0.00;0.00;;;;;;;;1521608;28;86994;-88
2021/01/14 12:09:42;;;;;;;;;1.00;1.00;;;;;;;;1524628;28;87697;-89
2021/01/14 12:10:27;;;;;;;;;0.00;0.00;;;;;;;;1521341;28;86982;-89
2021/01/14 12:11:16;;;;;;;;;0.00;0.00;;;;;;;;1524171;28;87067;-89
2021/01/14 12:12:02;;;;;;;;;0.00;0.00;;;;;;;;1519633;28;87885;-91
2021/01/14 12:12:47;;;;;;;;;0.00;0.00;;;;;;;;1519698;28;87222;-91
2021/01/14 12:13:32;;;;;;;;;0.00;0.00;;;;;;;;1516695;28;86853;-90
2021/01/14 12:14:18;;;;;;;;;0.00;0.00;;;;;;;;1518690;28;86670;-90
2021/01/14 12:15:05;;;;;;;;;0.00;0.00;;;;;;;;1525818;28;87637;-91
2021/01/14 12:15:50;;;;;;;;;0.00;0.00;;;;;;;;1523969;28;89074;-91
2021/01/14 12:16:35;;;;;;;;;0.00;0.00;;;;;;;;1524961;28;88850;-92
2021/01/14 12:17:20;;;;;;;;;0.00;0.00;;;;;;;;1522776;28;89926;-91
2021/01/14 12:18:06;;;;;;;;;0.00;0.00;;;;;;;;1522565;28;89222;-89
2021/01/14 12:18:51;;;;;;;;;0.00;0.00;;;;;;;;1522318;28;88679;-90
2021/01/14 12:19:36;;;;;;;;;0.00;0.00;;;;;;;;1519096;28;90042;-90
2021/01/14 12:20:21;;;;;;;;;0.00;0.00;;;;;;;;1522067;28;90651;-90
2021/01/14 12:21:07;;;;;;;;;0.00;0.00;;;;;;;;1518464;28;89916;-90
2021/01/14 12:22:02;;;;;;;;;0.00;0.00;;;;;;;;1524687;28;88790;-90
2021/01/14 12:22:47;;;;;;;;;0.00;0.00;;;;;;;;1531748;28;89135;-89
2021/01/14 12:23:33;;;;;;;;;0.00;0.00;;;;;;;;1531025;28;87735;-89
2021/01/14 12:24:18;;;;;;;;;0.00;0.00;;;;;;;;1528590;28;89735;-90
2021/01/14 12:25:03;;;;;;;;;0.00;0.00;;;;;;;;1528612;28;88406;-89
2021/01/14 12:25:48;;;;;;;;;0.00;0.00;;;;;;;;1522678;28;89451;-91
2021/01/14 12:26:34;;;;;;;;;0.00;0.00;;;;;;;;1518640;28;89634;-89
2021/01/14 12:27:19;;;;;;;;;0.00;0.00;;;;;;;;1518844;28;89211;-90
2021/01/14 12:28:04;;;;;;;;;0.00;0.00;;;;;;;;1525551;28;90895;-89
2021/01/14 12:28:49;;;;;;;;;0.00;0.00;;;;;;;;1529752;28;87282;-89
2021/01/14 12:29:35;;;;;;;;;0.00;0.00;;;;;;;;1525413;28;89622;-90
2021/01/14 12:30:20;;;;;;;;;0.00;0.00;;;;;;;;1529337;28;88825;-90
2021/01/14 12:31:06;;;;;;;;;0.00;0.00;;;;;;;;1529235;28;87798;-89
2021/01/14 12:31:52;;;;;;;;;0.00;0.00;;;;;;;;1529799;28;89146;-90
2021/01/14 12:32:37;;;;;;;;;0.00;0.00;;;;;;;;1523384;28;89087;-89
2021/01/14 12:33:22;;;;;;;;;0.00;0.00;;;;;;;;1519113;28;88214;-89
2021/01/14 12:34:08;;;;;;;;;0.00;0.00;;;;;;;;1519209;28;89570;-89
2021/01/14 12:34:53;;;;;;;;;1.00;1.00;;;;;;;;1525241;28;90252;-89
2021/01/14 12:35:39;;;;;;;;;0.00;0.00;;;;;;;;1526946;28;88391;-90
2021/01/14 12:36:24;;;;;;;;;1.00;1.00;;;;;;;;1520220;28;90185;-90
2021/01/14 12:37:09;;;;;;;;;0.00;0.00;;;;;;;;1519503;28;88926;-89
2021/01/14 12:37:55;;;;;;;;;0.00;0.00;;;;;;;;1525606;28;88889;-89
2021/01/14 12:38:41;;;;;;;;;0.00;0.00;;;;;;;;1521658;28;90399;-89
2021/01/14 12:39:27;;;;;;;;;1.00;1.00;;;;;;;;1521079;28;88146;-90
2021/01/14 12:40:12;;;;;;;;;0.00;0.00;;;;;;;;1525688;28;87178;-89
2021/01/14 12:40:57;;;;;;;;;0.00;0.00;;;;;;;;1529680;28;89266;-89
2021/01/14 12:41:43;;;;;;;;;0.00;0.00;;;;;;;;1529730;28;90391;-90